sensor_id;sensor_type;location;lat;lon;timestamp;P1;durP1;ratioP1;P2;durP2;ratioP2
1523;SDS011;755;53.658;10.118;2022-11-18T00:00:00;44.25;;;17.58;;
1523;SDS011;755;53.658;10.118;2022-11-18T00:10:03;37.97;;;16.42;;
1523;SDS011;755;53.658;10.118;2022-11-18T00:20:07;36.28;;;15.88;;
1523;SDS011;755;53.658;10.118;2022-11-18T00:30:10;40.35;;;17.10;;
1523;SDS011;755;53.658;10.118;2022-11-18T00:40:13;40.60;;;17.02;;
1523;SDS011;755;53.658;10.118;2022-11-18T00:50:15;39.80;;;17.38;;
1523;SDS011;755;53.658;10.118;2022-11-18T01:00:19;38.90;;;16.23;;
1523;SDS011;755;53.658;10.118;2022-11-18T01:10:22;36.40;;;16.05;;
1523;SDS011;755;53.658;10.118;2022-11-18T01:20:25;42.58;;;17.13;;
1523;SDS011;755;53.658;10.118;2022-11-18T01:30:27;36.22;;;16.73;;
1523;SDS011;755;53.658;10.118;2022-11-18T01:40:31;42.95;;;18.67;;
1523;SDS011;755;53.658;10.118;2022-11-18T01:50:33;47.08;;;18.73;;
1523;SDS011;755;53.658;10.118;2022-11-18T02:00:39;39.67;;;18.13;;
1523;SDS011;755;53.658;10.118;2022-11-18T02:10:42;38.17;;;18.45;;
1523;SDS011;755;53.658;10.118;2022-11-18T02:20:46;46.00;;;18.85;;
1523;SDS011;755;53.658;10.118;2022-11-18T02:30:55;37.63;;;16.08;;
1523;SDS011;755;53.658;10.118;2022-11-18T02:41:01;44.45;;;17.63;;
1523;SDS011;755;53.658;10.118;2022-11-18T02:51:07;37.00;;;16.57;;
1523;SDS011;755;53.658;10.118;2022-11-18T03:01:15;37.58;;;16.08;;
1523;SDS011;755;53.658;10.118;2022-11-18T03:11:22;44.00;;;17.85;;
1523;SDS011;755;53.658;10.118;2022-11-18T03:21:28;37.47;;;15.93;;
1523;SDS011;755;53.658;10.118;2022-11-18T03:31:38;38.30;;;16.65;;
1523;SDS011;755;53.658;10.118;2022-11-18T03:41:43;33.67;;;16.38;;
1523;SDS011;755;53.658;10.118;2022-11-18T03:51:50;38.95;;;16.58;;
1523;SDS011;755;53.658;10.118;2022-11-18T04:01:56;38.28;;;16.80;;
1523;SDS011;755;53.658;10.118;2022-11-18T04:12:06;40.67;;;18.52;;
1523;SDS011;755;53.658;10.118;2022-11-18T04:22:12;42.50;;;18.33;;
1523;SDS011;755;53.658;10.118;2022-11-18T04:32:15;42.35;;;19.38;;
1523;SDS011;755;53.658;10.118;2022-11-18T04:42:17;39.80;;;18.45;;
1523;SDS011;755;53.658;10.118;2022-11-18T04:52:21;43.22;;;18.58;;
1523;SDS011;755;53.658;10.118;2022-11-18T05:02:23;45.65;;;20.23;;
1523;SDS011;755;53.658;10.118;2022-11-18T05:12:27;43.97;;;19.23;;
1523;SDS011;755;53.658;10.118;2022-11-18T05:22:46;49.90;;;20.15;;
1523;SDS011;755;53.658;10.118;2022-11-18T05:32:50;47.05;;;20.25;;
1523;SDS011;755;53.658;10.118;2022-11-18T05:42:52;50.72;;;21.63;;
1523;SDS011;755;53.658;10.118;2022-11-18T05:53:12;54.17;;;22.95;;
1523;SDS011;755;53.658;10.118;2022-11-18T06:03:15;50.70;;;22.40;;
1523;SDS011;755;53.658;10.118;2022-11-18T06:13:22;55.95;;;22.40;;
1523;SDS011;755;53.658;10.118;2022-11-18T06:23:29;53.65;;;22.52;;
1523;SDS011;755;53.658;10.118;2022-11-18T06:43:38;55.33;;;20.25;;
1523;SDS011;755;53.658;10.118;2022-11-18T06:54:07;48.30;;;19.63;;
1523;SDS011;755;53.658;10.118;2022-11-18T07:04:10;48.60;;;19.63;;
1523;SDS011;755;53.658;10.118;2022-11-18T07:14:14;46.30;;;18.65;;
1523;SDS011;755;53.658;10.118;2022-11-18T07:24:17;54.42;;;20.02;;
1523;SDS011;755;53.658;10.118;2022-11-18T07:34:21;43.15;;;19.10;;
1523;SDS011;755;53.658;10.118;2022-11-18T07:44:23;41.47;;;16.70;;
1523;SDS011;755;53.658;10.118;2022-11-18T07:54:28;38.92;;;18.55;;
1523;SDS011;755;53.658;10.118;2022-11-18T08:04:30;42.05;;;19.13;;
1523;SDS011;755;53.658;10.118;2022-11-18T08:14:39;38.85;;;16.38;;
1523;SDS011;755;53.658;10.118;2022-11-18T08:24:41;44.28;;;18.42;;
1523;SDS011;755;53.658;10.118;2022-11-18T08:34:45;38.10;;;16.75;;
1523;SDS011;755;53.658;10.118;2022-11-18T08:55:19;32.50;;;15.43;;
1523;SDS011;755;53.658;10.118;2022-11-18T09:05:22;33.50;;;14.65;;
1523;SDS011;755;53.658;10.118;2022-11-18T09:15:26;24.48;;;12.75;;
1523;SDS011;755;53.658;10.118;2022-11-18T09:25:34;22.88;;;12.20;;
1523;SDS011;755;53.658;10.118;2022-11-18T09:35:44;24.63;;;12.27;;
1523;SDS011;755;53.658;10.118;2022-11-18T09:45:48;21.02;;;10.25;;
1523;SDS011;755;53.658;10.118;2022-11-18T09:55:59;17.48;;;8.02;;
1523;SDS011;755;53.658;10.118;2022-11-18T10:06:03;15.25;;;7.80;;
1523;SDS011;755;53.658;10.118;2022-11-18T10:16:21;20.23;;;8.77;;
1523;SDS011;755;53.658;10.118;2022-11-18T10:26:32;14.75;;;7.85;;
1523;SDS011;755;53.658;10.118;2022-11-18T10:36:37;10.38;;;5.43;;
1523;SDS011;755;53.658;10.118;2022-11-18T10:46:39;12.43;;;5.45;;
1523;SDS011;755;53.658;10.118;2022-11-18T10:56:47;11.80;;;5.55;;
1523;SDS011;755;53.658;10.118;2022-11-18T11:06:52;12.50;;;5.53;;
1523;SDS011;755;53.658;10.118;2022-11-18T11:16:58;11.73;;;5.50;;
1523;SDS011;755;53.658;10.118;2022-11-18T11:27:11;11.45;;;5.85;;
1523;SDS011;755;53.658;10.118;2022-11-18T11:37:24;10.93;;;5.10;;
1523;SDS011;755;53.658;10.118;2022-11-18T11:47:37;13.13;;;5.40;;
1523;SDS011;755;53.658;10.118;2022-11-18T11:58:03;11.63;;;4.75;;
1523;SDS011;755;53.658;10.118;2022-11-18T12:08:19;11.93;;;4.90;;
1523;SDS011;755;53.658;10.118;2022-11-18T12:18:25;8.20;;;4.23;;
1523;SDS011;755;53.658;10.118;2022-11-18T12:28:34;11.38;;;5.28;;
1523;SDS011;755;53.658;10.118;2022-11-18T12:38:41;10.98;;;4.30;;
1523;SDS011;755;53.658;10.118;2022-11-18T12:48:43;9.00;;;3.70;;
1523;SDS011;755;53.658;10.118;2022-11-18T12:58:47;11.30;;;3.47;;
1523;SDS011;755;53.658;10.118;2022-11-18T13:08:51;9.70;;;3.17;;
1523;SDS011;755;53.658;10.118;2022-11-18T13:18:57;5.67;;;2.57;;
1523;SDS011;755;53.658;10.118;2022-11-18T13:29:06;7.30;;;2.78;;
1523;SDS011;755;53.658;10.118;2022-11-18T13:39:19;6.88;;;2.45;;
1523;SDS011;755;53.658;10.118;2022-11-18T13:49:26;5.85;;;2.58;;
1523;SDS011;755;53.658;10.118;2022-11-18T13:59:40;5.57;;;2.58;;
1523;SDS011;755;53.658;10.118;2022-11-18T14:09:51;5.13;;;2.10;;
1523;SDS011;755;53.658;10.118;2022-11-18T14:19:57;5.97;;;2.40;;
1523;SDS011;755;53.658;10.118;2022-11-18T14:30:02;5.68;;;2.50;;
1523;SDS011;755;53.658;10.118;2022-11-18T14:40:28;5.63;;;1.60;;
1523;SDS011;755;53.658;10.118;2022-11-18T14:50:29;3.40;;;1.60;;
1523;SDS011;755;53.658;10.118;2022-11-18T15:00:33;3.63;;;1.52;;
1523;SDS011;755;53.658;10.118;2022-11-18T15:10:35;3.55;;;1.45;;
1523;SDS011;755;53.658;10.118;2022-11-18T15:20:38;3.97;;;1.50;;
1523;SDS011;755;53.658;10.118;2022-11-18T15:30:40;2.15;;;1.17;;
1523;SDS011;755;53.658;10.118;2022-11-18T15:40:43;3.03;;;1.30;;
1523;SDS011;755;53.658;10.118;2022-11-18T15:50:45;1.83;;;1.10;;
1523;SDS011;755;53.658;10.118;2022-11-18T16:00:48;6.13;;;2.58;;
1523;SDS011;755;53.658;10.118;2022-11-18T16:10:53;4.03;;;1.55;;
1523;SDS011;755;53.658;10.118;2022-11-18T16:21:14;8.38;;;2.03;;
1523;SDS011;755;53.658;10.118;2022-11-18T16:31:16;5.22;;;1.48;;
1523;SDS011;755;53.658;10.118;2022-11-18T16:41:37;4.28;;;2.10;;
1523;SDS011;755;53.658;10.118;2022-11-18T16:51:40;3.83;;;2.15;;
1523;SDS011;755;53.658;10.118;2022-11-18T17:01:45;7.30;;;3.08;;
1523;SDS011;755;53.658;10.118;2022-11-18T17:11:47;5.80;;;2.45;;
1523;SDS011;755;53.658;10.118;2022-11-18T17:21:51;14.93;;;7.07;;
1523;SDS011;755;53.658;10.118;2022-11-18T17:31:53;8.38;;;3.42;;
1523;SDS011;755;53.658;10.118;2022-11-18T17:41:56;11.00;;;3.65;;
1523;SDS011;755;53.658;10.118;2022-11-18T17:52:18;9.38;;;3.53;;
1523;SDS011;755;53.658;10.118;2022-11-18T18:02:21;12.38;;;3.65;;
1523;SDS011;755;53.658;10.118;2022-11-18T18:12:23;14.90;;;4.07;;
1523;SDS011;755;53.658;10.118;2022-11-18T18:22:43;8.77;;;3.35;;
1523;SDS011;755;53.658;10.118;2022-11-18T18:32:45;9.05;;;3.30;;
1523;SDS011;755;53.658;10.118;2022-11-18T18:42:49;11.57;;;4.53;;
1523;SDS011;755;53.658;10.118;2022-11-18T18:52:50;8.13;;;4.32;;
1523;SDS011;755;53.658;10.118;2022-11-18T19:02:54;11.25;;;4.53;;
1523;SDS011;755;53.658;10.118;2022-11-18T19:12:56;10.55;;;4.90;;
1523;SDS011;755;53.658;10.118;2022-11-18T19:22:59;14.13;;;4.95;;
1523;SDS011;755;53.658;10.118;2022-11-18T19:33:02;12.85;;;5.35;;
1523;SDS011;755;53.658;10.118;2022-11-18T19:43:06;37.90;;;14.25;;
1523;SDS011;755;53.658;10.118;2022-11-18T19:53:08;35.47;;;10.80;;
1523;SDS011;755;53.658;10.118;2022-11-18T20:03:32;18.30;;;7.32;;
1523;SDS011;755;53.658;10.118;2022-11-18T20:13:34;18.90;;;6.25;;
1523;SDS011;755;53.658;10.118;2022-11-18T20:23:37;16.85;;;6.88;;
1523;SDS011;755;53.658;10.118;2022-11-18T20:33:40;12.20;;;5.35;;
1523;SDS011;755;53.658;10.118;2022-11-18T20:43:45;9.18;;;4.38;;
1523;SDS011;755;53.658;10.118;2022-11-18T20:53:48;16.23;;;7.57;;
1523;SDS011;755;53.658;10.118;2022-11-18T21:03:52;17.90;;;8.07;;
1523;SDS011;755;53.658;10.118;2022-11-18T21:13:56;19.08;;;8.75;;
1523;SDS011;755;53.658;10.118;2022-11-18T21:24:17;17.17;;;7.97;;
1523;SDS011;755;53.658;10.118;2022-11-18T21:34:21;18.70;;;8.03;;
1523;SDS011;755;53.658;10.118;2022-11-18T21:44:24;24.25;;;9.55;;
1523;SDS011;755;53.658;10.118;2022-11-18T21:54:27;22.00;;;9.52;;
1523;SDS011;755;53.658;10.118;2022-11-18T22:04:31;26.55;;;11.10;;
1523;SDS011;755;53.658;10.118;2022-11-18T22:14:50;23.42;;;9.93;;
1523;SDS011;755;53.658;10.118;2022-11-18T22:24:54;24.02;;;9.95;;
1523;SDS011;755;53.658;10.118;2022-11-18T22:34:55;24.25;;;11.25;;
1523;SDS011;755;53.658;10.118;2022-11-18T22:44:59;28.08;;;10.82;;
1523;SDS011;755;53.658;10.118;2022-11-18T22:55:01;28.75;;;11.27;;
1523;SDS011;755;53.658;10.118;2022-11-18T23:05:04;29.75;;;12.60;;
1523;SDS011;755;53.658;10.118;2022-11-18T23:15:09;33.70;;;13.65;;
1523;SDS011;755;53.658;10.118;2022-11-18T23:25:13;33.92;;;13.10;;
1523;SDS011;755;53.658;10.118;2022-11-18T23:35:15;32.10;;;12.60;;
1523;SDS011;755;53.658;10.118;2022-11-18T23:45:19;30.38;;;12.05;;
1523;SDS011;755;53.658;10.118;2022-11-18T23:55:21;36.28;;;13.30;;
